sensor_id;sensor_type;location;lat;lon;timestamp;P1;durP1;ratioP1;P2;durP2;ratioP2
21000;SDS011;10658;50.920;12.238;2023-04-03T00:03:24;2.00;;;1.02;;
21000;SDS011;10658;50.920;12.238;2023-04-03T00:07:28;4.32;;;1.15;;
21000;SDS011;10658;50.920;12.238;2023-04-03T00:11:29;2.58;;;1.30;;
21000;SDS011;10658;50.920;12.238;2023-04-03T00:15:30;4.20;;;1.80;;
21000;SDS011;10658;50.920;12.238;2023-04-03T00:19:32;4.82;;;1.10;;
21000;SDS011;10658;50.920;12.238;2023-04-03T00:23:36;6.28;;;1.20;;
21000;SDS011;10658;50.920;12.238;2023-04-03T00:27:37;6.32;;;1.77;;
21000;SDS011;10658;50.920;12.238;2023-04-03T00:31:39;5.22;;;1.40;;
21000;SDS011;10658;50.920;12.238;2023-04-03T00:35:40;2.45;;;1.20;;
21000;SDS011;10658;50.920;12.238;2023-04-03T00:39:42;3.45;;;1.55;;
21000;SDS011;10658;50.920;12.238;2023-04-03T00:43:43;1.30;;;0.73;;
21000;SDS011;10658;50.920;12.238;2023-04-03T00:47:45;1.92;;;1.30;;
21000;SDS011;10658;50.920;12.238;2023-04-03T00:51:46;4.85;;;1.63;;
21000;SDS011;10658;50.920;12.238;2023-04-03T00:55:47;10.90;;;1.52;;
21000;SDS011;10658;50.920;12.238;2023-04-03T00:59:50;4.18;;;1.10;;
21000;SDS011;10658;50.920;12.238;2023-04-03T01:03:55;3.60;;;1.20;;
21000;SDS011;10658;50.920;12.238;2023-04-03T01:07:59;4.70;;;1.52;;
21000;SDS011;10658;50.920;12.238;2023-04-03T01:12:43;2.33;;;0.98;;
21000;SDS011;10658;50.920;12.238;2023-04-03T01:16:27;2.70;;;1.20;;
21000;SDS011;10658;50.920;12.238;2023-04-03T01:24:38;2.60;;;1.13;;
21000;SDS011;10658;50.920;12.238;2023-04-03T01:28:41;1.38;;;0.93;;
21000;SDS011;10658;50.920;12.238;2023-04-03T01:32:42;3.25;;;1.35;;
21000;SDS011;10658;50.920;12.238;2023-04-03T01:36:43;4.13;;;1.13;;
21000;SDS011;10658;50.920;12.238;2023-04-03T01:40:45;5.35;;;1.42;;
21000;SDS011;10658;50.920;12.238;2023-04-03T01:44:46;1.50;;;1.15;;
21000;SDS011;10658;50.920;12.238;2023-04-03T01:48:47;4.55;;;1.63;;
21000;SDS011;10658;50.920;12.238;2023-04-03T01:52:48;2.78;;;1.50;;
21000;SDS011;10658;50.920;12.238;2023-04-03T01:56:49;4.55;;;1.58;;
21000;SDS011;10658;50.920;12.238;2023-04-03T02:00:51;3.15;;;1.83;;
21000;SDS011;10658;50.920;12.238;2023-04-03T02:04:53;1.42;;;1.00;;
21000;SDS011;10658;50.920;12.238;2023-04-03T02:08:55;3.08;;;1.25;;
21000;SDS011;10658;50.920;12.238;2023-04-03T02:12:56;2.70;;;1.45;;
21000;SDS011;10658;50.920;12.238;2023-04-03T02:16:57;3.58;;;1.58;;
21000;SDS011;10658;50.920;12.238;2023-04-03T02:20:58;7.95;;;1.70;;
21000;SDS011;10658;50.920;12.238;2023-04-03T02:25:00;5.10;;;1.45;;
21000;SDS011;10658;50.920;12.238;2023-04-03T02:29:01;2.50;;;1.17;;
21000;SDS011;10658;50.920;12.238;2023-04-03T02:33:02;5.97;;;1.30;;
21000;SDS011;10658;50.920;12.238;2023-04-03T02:37:03;6.30;;;1.60;;
21000;SDS011;10658;50.920;12.238;2023-04-03T02:41:06;3.83;;;1.10;;
21000;SDS011;10658;50.920;12.238;2023-04-03T02:45:09;4.07;;;1.35;;
21000;SDS011;10658;50.920;12.238;2023-04-03T02:49:14;1.45;;;1.00;;
21000;SDS011;10658;50.920;12.238;2023-04-03T02:53:15;2.60;;;1.10;;
21000;SDS011;10658;50.920;12.238;2023-04-03T02:57:17;2.80;;;1.13;;
21000;SDS011;10658;50.920;12.238;2023-04-03T03:01:18;1.63;;;1.33;;
21000;SDS011;10658;50.920;12.238;2023-04-03T03:05:18;1.80;;;1.00;;
21000;SDS011;10658;50.920;12.238;2023-04-03T03:09:19;3.28;;;1.08;;
21000;SDS011;10658;50.920;12.238;2023-04-03T03:13:20;2.45;;;1.50;;
21000;SDS011;10658;50.920;12.238;2023-04-03T03:17:21;3.80;;;1.60;;
21000;SDS011;10658;50.920;12.238;2023-04-03T03:21:22;2.78;;;1.58;;
21000;SDS011;10658;50.920;12.238;2023-04-03T03:25:23;4.03;;;1.00;;
21000;SDS011;10658;50.920;12.238;2023-04-03T03:29:24;2.33;;;0.90;;
21000;SDS011;10658;50.920;12.238;2023-04-03T03:33:26;2.03;;;1.50;;
21000;SDS011;10658;50.920;12.238;2023-04-03T03:37:27;2.80;;;1.20;;
21000;SDS011;10658;50.920;12.238;2023-04-03T03:41:28;9.10;;;1.25;;
21000;SDS011;10658;50.920;12.238;2023-04-03T03:45:29;3.28;;;1.25;;
21000;SDS011;10658;50.920;12.238;2023-04-03T03:49:31;2.55;;;1.20;;
21000;SDS011;10658;50.920;12.238;2023-04-03T03:53:32;8.68;;;1.77;;
21000;SDS011;10658;50.920;12.238;2023-04-03T03:57:38;6.43;;;1.25;;
21000;SDS011;10658;50.920;12.238;2023-04-03T04:01:40;7.50;;;1.25;;
21000;SDS011;10658;50.920;12.238;2023-04-03T04:05:41;6.88;;;1.52;;
21000;SDS011;10658;50.920;12.238;2023-04-03T04:09:42;3.17;;;1.25;;
21000;SDS011;10658;50.920;12.238;2023-04-03T04:13:43;1.55;;;1.10;;
21000;SDS011;10658;50.920;12.238;2023-04-03T04:17:47;3.17;;;1.30;;
21000;SDS011;10658;50.920;12.238;2023-04-03T04:21:48;8.38;;;1.35;;
21000;SDS011;10658;50.920;12.238;2023-04-03T04:25:49;4.78;;;1.40;;
21000;SDS011;10658;50.920;12.238;2023-04-03T04:29:50;2.30;;;1.33;;
21000;SDS011;10658;50.920;12.238;2023-04-03T04:33:52;1.45;;;1.35;;
21000;SDS011;10658;50.920;12.238;2023-04-03T04:37:54;2.28;;;1.15;;
21000;SDS011;10658;50.920;12.238;2023-04-03T04:41:55;2.30;;;1.13;;
21000;SDS011;10658;50.920;12.238;2023-04-03T04:46:05;4.75;;;1.90;;
21000;SDS011;10658;50.920;12.238;2023-04-03T04:50:12;6.55;;;1.48;;
21000;SDS011;10658;50.920;12.238;2023-04-03T04:54:14;6.03;;;2.08;;
21000;SDS011;10658;50.920;12.238;2023-04-03T04:58:16;2.22;;;1.38;;
21000;SDS011;10658;50.920;12.238;2023-04-03T05:02:17;4.85;;;1.25;;
21000;SDS011;10658;50.920;12.238;2023-04-03T05:06:22;2.65;;;1.40;;
21000;SDS011;10658;50.920;12.238;2023-04-03T05:10:23;2.72;;;1.55;;
21000;SDS011;10658;50.920;12.238;2023-04-03T05:14:26;3.88;;;1.13;;
21000;SDS011;10658;50.920;12.238;2023-04-03T05:18:28;6.38;;;1.80;;
21000;SDS011;10658;50.920;12.238;2023-04-03T05:22:32;3.63;;;1.88;;
21000;SDS011;10658;50.920;12.238;2023-04-03T05:26:39;3.92;;;1.15;;
21000;SDS011;10658;50.920;12.238;2023-04-03T05:30:41;5.65;;;1.40;;
21000;SDS011;10658;50.920;12.238;2023-04-03T05:34:42;4.97;;;1.40;;
21000;SDS011;10658;50.920;12.238;2023-04-03T05:38:44;6.88;;;1.75;;
21000;SDS011;10658;50.920;12.238;2023-04-03T05:42:46;4.68;;;1.70;;
21000;SDS011;10658;50.920;12.238;2023-04-03T05:46:49;2.30;;;1.88;;
21000;SDS011;10658;50.920;12.238;2023-04-03T05:50:50;3.50;;;1.75;;
21000;SDS011;10658;50.920;12.238;2023-04-03T05:54:57;7.28;;;1.40;;
21000;SDS011;10658;50.920;12.238;2023-04-03T05:59:01;2.83;;;1.83;;
21000;SDS011;10658;50.920;12.238;2023-04-03T06:03:02;3.60;;;1.30;;
21000;SDS011;10658;50.920;12.238;2023-04-03T06:07:03;10.60;;;1.55;;
21000;SDS011;10658;50.920;12.238;2023-04-03T06:11:04;5.43;;;1.75;;
21000;SDS011;10658;50.920;12.238;2023-04-03T06:15:05;5.60;;;1.50;;
21000;SDS011;10658;50.920;12.238;2023-04-03T06:19:08;3.88;;;1.45;;
21000;SDS011;10658;50.920;12.238;2023-04-03T06:23:13;4.43;;;1.85;;
21000;SDS011;10658;50.920;12.238;2023-04-03T06:27:14;5.00;;;1.40;;
21000;SDS011;10658;50.920;12.238;2023-04-03T06:31:15;3.35;;;1.65;;
21000;SDS011;10658;50.920;12.238;2023-04-03T06:35:17;6.45;;;1.30;;
21000;SDS011;10658;50.920;12.238;2023-04-03T06:39:19;6.38;;;1.40;;
21000;SDS011;10658;50.920;12.238;2023-04-03T06:43:22;3.03;;;1.48;;
21000;SDS011;10658;50.920;12.238;2023-04-03T06:47:23;7.88;;;1.40;;
21000;SDS011;10658;50.920;12.238;2023-04-03T06:51:25;5.63;;;1.50;;
21000;SDS011;10658;50.920;12.238;2023-04-03T06:55:27;3.58;;;1.30;;
21000;SDS011;10658;50.920;12.238;2023-04-03T06:59:28;2.67;;;1.73;;
21000;SDS011;10658;50.920;12.238;2023-04-03T07:03:29;6.00;;;1.67;;
21000;SDS011;10658;50.920;12.238;2023-04-03T07:07:30;2.60;;;1.60;;
21000;SDS011;10658;50.920;12.238;2023-04-03T07:11:31;4.97;;;1.38;;
21000;SDS011;10658;50.920;12.238;2023-04-03T07:15:32;2.75;;;1.63;;
21000;SDS011;10658;50.920;12.238;2023-04-03T07:19:33;5.57;;;1.50;;
21000;SDS011;10658;50.920;12.238;2023-04-03T07:23:34;9.13;;;1.83;;
21000;SDS011;10658;50.920;12.238;2023-04-03T07:27:35;4.03;;;1.83;;
21000;SDS011;10658;50.920;12.238;2023-04-03T07:31:36;5.45;;;1.70;;
21000;SDS011;10658;50.920;12.238;2023-04-03T07:35:40;6.25;;;2.13;;
21000;SDS011;10658;50.920;12.238;2023-04-03T07:39:45;2.63;;;1.42;;
21000;SDS011;10658;50.920;12.238;2023-04-03T07:43:46;5.13;;;1.92;;
21000;SDS011;10658;50.920;12.238;2023-04-03T07:47:49;3.28;;;1.73;;
21000;SDS011;10658;50.920;12.238;2023-04-03T07:51:50;4.15;;;1.67;;
21000;SDS011;10658;50.920;12.238;2023-04-03T07:55:51;5.07;;;1.90;;
21000;SDS011;10658;50.920;12.238;2023-04-03T07:59:55;3.28;;;1.65;;
21000;SDS011;10658;50.920;12.238;2023-04-03T08:03:56;8.82;;;1.70;;
21000;SDS011;10658;50.920;12.238;2023-04-03T08:07:57;4.13;;;1.65;;
21000;SDS011;10658;50.920;12.238;2023-04-03T08:11:58;6.32;;;1.35;;
21000;SDS011;10658;50.920;12.238;2023-04-03T08:16:06;4.15;;;1.55;;
21000;SDS011;10658;50.920;12.238;2023-04-03T08:20:09;2.30;;;1.27;;
21000;SDS011;10658;50.920;12.238;2023-04-03T08:24:10;1.55;;;1.00;;
21000;SDS011;10658;50.920;12.238;2023-04-03T08:28:11;4.15;;;1.33;;
21000;SDS011;10658;50.920;12.238;2023-04-03T08:32:12;2.05;;;1.15;;
21000;SDS011;10658;50.920;12.238;2023-04-03T08:36:21;3.75;;;1.15;;
21000;SDS011;10658;50.920;12.238;2023-04-03T08:40:24;3.47;;;0.90;;
21000;SDS011;10658;50.920;12.238;2023-04-03T08:48:44;1.25;;;1.00;;
21000;SDS011;10658;50.920;12.238;2023-04-03T08:52:52;2.33;;;1.00;;
21000;SDS011;10658;50.920;12.238;2023-04-03T08:56:56;6.18;;;1.25;;
21000;SDS011;10658;50.920;12.238;2023-04-03T09:01:01;5.22;;;1.15;;
21000;SDS011;10658;50.920;12.238;2023-04-03T09:05:15;2.85;;;0.88;;
21000;SDS011;10658;50.920;12.238;2023-04-03T09:13:53;2.40;;;0.93;;
21000;SDS011;10658;50.920;12.238;2023-04-03T09:22:24;1.75;;;1.00;;
21000;SDS011;10658;50.920;12.238;2023-04-03T09:26:30;3.75;;;1.00;;
21000;SDS011;10658;50.920;12.238;2023-04-03T09:30:36;3.70;;;0.98;;
21000;SDS011;10658;50.920;12.238;2023-04-03T09:34:38;1.90;;;0.98;;
21000;SDS011;10658;50.920;12.238;2023-04-03T09:38:41;2.42;;;0.70;;
21000;SDS011;10658;50.920;12.238;2023-04-03T09:42:42;1.63;;;0.73;;
21000;SDS011;10658;50.920;12.238;2023-04-03T09:46:43;0.70;;;0.60;;
21000;SDS011;10658;50.920;12.238;2023-04-03T09:54:56;2.13;;;0.80;;
21000;SDS011;10658;50.920;12.238;2023-04-03T09:59:21;1.08;;;0.70;;
21000;SDS011;10658;50.920;12.238;2023-04-03T10:03:30;3.88;;;0.95;;
21000;SDS011;10658;50.920;12.238;2023-04-03T10:07:35;1.13;;;0.80;;
21000;SDS011;10658;50.920;12.238;2023-04-03T10:11:37;2.22;;;0.52;;
21000;SDS011;10658;50.920;12.238;2023-04-03T10:15:42;2.15;;;0.70;;
21000;SDS011;10658;50.920;12.238;2023-04-03T10:19:47;1.95;;;0.70;;
21000;SDS011;10658;50.920;12.238;2023-04-03T10:41:20;1.67;;;0.70;;
21000;SDS011;10658;50.920;12.238;2023-04-03T11:03:13;4.28;;;0.80;;
21000;SDS011;10658;50.920;12.238;2023-04-03T11:07:22;2.75;;;0.88;;
21000;SDS011;10658;50.920;12.238;2023-04-03T11:11:27;4.38;;;0.90;;
21000;SDS011;10658;50.920;12.238;2023-04-03T11:15:32;1.80;;;0.82;;
21000;SDS011;10658;50.920;12.238;2023-04-03T11:19:52;1.52;;;0.73;;
21000;SDS011;10658;50.920;12.238;2023-04-03T11:24:24;1.88;;;1.13;;
21000;SDS011;10658;50.920;12.238;2023-04-03T11:28:27;2.80;;;1.05;;
21000;SDS011;10658;50.920;12.238;2023-04-03T11:37:12;1.38;;;0.73;;
21000;SDS011;10658;50.920;12.238;2023-04-03T11:41:17;1.17;;;0.80;;
21000;SDS011;10658;50.920;12.238;2023-04-03T11:45:52;1.08;;;0.77;;
21000;SDS011;10658;50.920;12.238;2023-04-03T11:50:04;4.55;;;0.90;;
21000;SDS011;10658;50.920;12.238;2023-04-03T11:55:09;2.08;;;0.73;;
21000;SDS011;10658;50.920;12.238;2023-04-03T11:58:52;1.33;;;0.77;;
21000;SDS011;10658;50.920;12.238;2023-04-03T12:07:27;1.92;;;1.00;;
21000;SDS011;10658;50.920;12.238;2023-04-03T12:11:32;2.53;;;0.68;;
21000;SDS011;10658;50.920;12.238;2023-04-03T12:19:39;2.53;;;0.93;;
21000;SDS011;10658;50.920;12.238;2023-04-03T12:28:05;5.55;;;1.20;;
21000;SDS011;10658;50.920;12.238;2023-04-03T12:32:13;0.82;;;0.70;;
21000;SDS011;10658;50.920;12.238;2023-04-03T12:45:19;1.83;;;1.00;;
21000;SDS011;10658;50.920;12.238;2023-04-03T12:53:35;2.15;;;0.98;;
21000;SDS011;10658;50.920;12.238;2023-04-03T12:57:38;1.15;;;0.73;;
21000;SDS011;10658;50.920;12.238;2023-04-03T13:01:39;1.77;;;0.65;;
21000;SDS011;10658;50.920;12.238;2023-04-03T13:05:40;3.60;;;0.93;;
21000;SDS011;10658;50.920;12.238;2023-04-03T13:09:44;1.27;;;0.80;;
21000;SDS011;10658;50.920;12.238;2023-04-03T13:17:58;1.17;;;0.68;;
21000;SDS011;10658;50.920;12.238;2023-04-03T13:22:02;3.78;;;1.05;;
21000;SDS011;10658;50.920;12.238;2023-04-03T13:26:08;2.40;;;1.05;;
21000;SDS011;10658;50.920;12.238;2023-04-03T13:34:55;3.08;;;1.05;;
21000;SDS011;10658;50.920;12.238;2023-04-03T13:39:00;1.38;;;1.00;;
21000;SDS011;10658;50.920;12.238;2023-04-03T13:43:17;1.20;;;1.00;;
21000;SDS011;10658;50.920;12.238;2023-04-03T13:47:26;2.28;;;0.82;;
21000;SDS011;10658;50.920;12.238;2023-04-03T13:51:39;2.58;;;1.10;;
21000;SDS011;10658;50.920;12.238;2023-04-03T13:55:55;1.40;;;1.10;;
21000;SDS011;10658;50.920;12.238;2023-04-03T14:08:45;2.17;;;1.00;;
21000;SDS011;10658;50.920;12.238;2023-04-03T14:12:47;1.95;;;0.95;;
21000;SDS011;10658;50.920;12.238;2023-04-03T14:16:51;2.22;;;1.10;;
21000;SDS011;10658;50.920;12.238;2023-04-03T14:20:54;6.03;;;1.30;;
21000;SDS011;10658;50.920;12.238;2023-04-03T14:24:55;4.45;;;1.15;;
21000;SDS011;10658;50.920;12.238;2023-04-03T14:28:56;1.67;;;0.85;;
21000;SDS011;10658;50.920;12.238;2023-04-03T14:32:57;1.15;;;1.05;;
21000;SDS011;10658;50.920;12.238;2023-04-03T14:37:00;3.97;;;0.98;;
21000;SDS011;10658;50.920;12.238;2023-04-03T14:41:00;2.35;;;0.98;;
21000;SDS011;10658;50.920;12.238;2023-04-03T14:45:02;2.50;;;1.10;;
21000;SDS011;10658;50.920;12.238;2023-04-03T14:49:12;2.58;;;1.20;;
21000;SDS011;10658;50.920;12.238;2023-04-03T14:53:34;1.77;;;0.90;;
21000;SDS011;10658;50.920;12.238;2023-04-03T14:57:36;1.33;;;1.00;;
21000;SDS011;10658;50.920;12.238;2023-04-03T15:01:39;1.40;;;1.05;;
21000;SDS011;10658;50.920;12.238;2023-04-03T15:05:41;2.17;;;1.00;;
21000;SDS011;10658;50.920;12.238;2023-04-03T15:09:42;2.00;;;1.20;;
21000;SDS011;10658;50.920;12.238;2023-04-03T15:13:43;1.50;;;1.10;;
21000;SDS011;10658;50.920;12.238;2023-04-03T15:17:44;1.50;;;1.33;;
21000;SDS011;10658;50.920;12.238;2023-04-03T15:21:47;4.85;;;1.30;;
21000;SDS011;10658;50.920;12.238;2023-04-03T15:25:48;3.53;;;1.23;;
21000;SDS011;10658;50.920;12.238;2023-04-03T15:29:50;2.33;;;1.33;;
21000;SDS011;10658;50.920;12.238;2023-04-03T15:33:51;1.58;;;1.30;;
21000;SDS011;10658;50.920;12.238;2023-04-03T15:37:52;2.90;;;1.10;;
21000;SDS011;10658;50.920;12.238;2023-04-03T15:41:53;2.70;;;1.13;;
21000;SDS011;10658;50.920;12.238;2023-04-03T15:45:57;1.95;;;1.00;;
21000;SDS011;10658;50.920;12.238;2023-04-03T15:49:59;3.55;;;1.17;;
21000;SDS011;10658;50.920;12.238;2023-04-03T15:54:00;2.85;;;1.20;;
21000;SDS011;10658;50.920;12.238;2023-04-03T15:58:01;3.17;;;0.90;;
21000;SDS011;10658;50.920;12.238;2023-04-03T16:02:04;1.73;;;1.17;;
21000;SDS011;10658;50.920;12.238;2023-04-03T16:06:07;6.18;;;1.02;;
21000;SDS011;10658;50.920;12.238;2023-04-03T16:10:08;4.03;;;1.42;;
21000;SDS011;10658;50.920;12.238;2023-04-03T16:14:09;2.65;;;1.33;;
21000;SDS011;10658;50.920;12.238;2023-04-03T16:18:10;1.90;;;1.10;;
21000;SDS011;10658;50.920;12.238;2023-04-03T16:22:13;2.83;;;1.23;;
21000;SDS011;10658;50.920;12.238;2023-04-03T16:26:14;0.95;;;0.90;;
21000;SDS011;10658;50.920;12.238;2023-04-03T16:30:15;4.03;;;1.33;;
21000;SDS011;10658;50.920;12.238;2023-04-03T16:34:16;1.73;;;0.88;;
21000;SDS011;10658;50.920;12.238;2023-04-03T16:38:17;1.95;;;1.10;;
21000;SDS011;10658;50.920;12.238;2023-04-03T16:42:22;2.58;;;1.35;;
21000;SDS011;10658;50.920;12.238;2023-04-03T16:46:23;1.38;;;1.15;;
21000;SDS011;10658;50.920;12.238;2023-04-03T16:50:24;2.58;;;1.13;;
21000;SDS011;10658;50.920;12.238;2023-04-03T16:54:24;0.90;;;0.90;;
21000;SDS011;10658;50.920;12.238;2023-04-03T16:58:25;1.52;;;1.20;;
21000;SDS011;10658;50.920;12.238;2023-04-03T17:02:26;1.77;;;1.13;;
21000;SDS011;10658;50.920;12.238;2023-04-03T17:06:27;1.73;;;0.90;;
21000;SDS011;10658;50.920;12.238;2023-04-03T17:10:28;3.78;;;1.10;;
21000;SDS011;10658;50.920;12.238;2023-04-03T17:14:30;1.15;;;1.00;;
21000;SDS011;10658;50.920;12.238;2023-04-03T17:18:31;2.63;;;1.55;;
21000;SDS011;10658;50.920;12.238;2023-04-03T17:22:32;2.00;;;1.08;;
21000;SDS011;10658;50.920;12.238;2023-04-03T17:26:34;2.42;;;0.90;;
21000;SDS011;10658;50.920;12.238;2023-04-03T17:30:36;1.80;;;0.80;;
21000;SDS011;10658;50.920;12.238;2023-04-03T17:34:37;2.47;;;1.15;;
21000;SDS011;10658;50.920;12.238;2023-04-03T17:38:39;2.80;;;1.30;;
21000;SDS011;10658;50.920;12.238;2023-04-03T17:42:40;1.38;;;1.00;;
21000;SDS011;10658;50.920;12.238;2023-04-03T17:46:41;1.65;;;0.90;;
21000;SDS011;10658;50.920;12.238;2023-04-03T17:50:41;4.75;;;1.10;;
21000;SDS011;10658;50.920;12.238;2023-04-03T17:54:42;1.00;;;0.90;;
21000;SDS011;10658;50.920;12.238;2023-04-03T17:58:43;1.90;;;1.10;;
21000;SDS011;10658;50.920;12.238;2023-04-03T18:02:45;1.40;;;0.98;;
21000;SDS011;10658;50.920;12.238;2023-04-03T18:06:46;4.20;;;1.48;;
21000;SDS011;10658;50.920;12.238;2023-04-03T18:10:50;1.67;;;1.40;;
21000;SDS011;10658;50.920;12.238;2023-04-03T18:14:50;1.67;;;1.33;;
21000;SDS011;10658;50.920;12.238;2023-04-03T18:18:51;1.65;;;1.05;;
21000;SDS011;10658;50.920;12.238;2023-04-03T18:22:52;1.75;;;1.02;;
21000;SDS011;10658;50.920;12.238;2023-04-03T18:26:54;5.38;;;1.58;;
21000;SDS011;10658;50.920;12.238;2023-04-03T18:31:06;1.42;;;1.15;;
21000;SDS011;10658;50.920;12.238;2023-04-03T18:35:10;5.70;;;1.58;;
21000;SDS011;10658;50.920;12.238;2023-04-03T18:39:10;1.83;;;1.30;;
21000;SDS011;10658;50.920;12.238;2023-04-03T18:43:11;2.25;;;1.50;;
21000;SDS011;10658;50.920;12.238;2023-04-03T18:47:12;1.95;;;1.10;;
21000;SDS011;10658;50.920;12.238;2023-04-03T18:51:13;2.45;;;1.30;;
21000;SDS011;10658;50.920;12.238;2023-04-03T18:55:15;3.05;;;1.23;;
21000;SDS011;10658;50.920;12.238;2023-04-03T18:59:19;3.13;;;1.52;;
21000;SDS011;10658;50.920;12.238;2023-04-03T19:03:20;1.85;;;1.27;;
21000;SDS011;10658;50.920;12.238;2023-04-03T19:07:21;1.77;;;1.60;;
21000;SDS011;10658;50.920;12.238;2023-04-03T19:11:22;1.88;;;1.27;;
21000;SDS011;10658;50.920;12.238;2023-04-03T19:15:23;3.70;;;1.60;;
21000;SDS011;10658;50.920;12.238;2023-04-03T19:19:25;1.65;;;0.77;;
21000;SDS011;10658;50.920;12.238;2023-04-03T19:23:25;1.83;;;1.15;;
21000;SDS011;10658;50.920;12.238;2023-04-03T19:27:26;1.88;;;1.05;;
21000;SDS011;10658;50.920;12.238;2023-04-03T19:31:27;5.75;;;1.45;;
21000;SDS011;10658;50.920;12.238;2023-04-03T19:35:28;4.22;;;1.00;;
21000;SDS011;10658;50.920;12.238;2023-04-03T19:39:30;1.30;;;0.93;;
21000;SDS011;10658;50.920;12.238;2023-04-03T19:43:34;2.13;;;1.02;;
21000;SDS011;10658;50.920;12.238;2023-04-03T19:47:35;2.75;;;1.13;;
21000;SDS011;10658;50.920;12.238;2023-04-03T19:51:36;2.70;;;1.15;;
21000;SDS011;10658;50.920;12.238;2023-04-03T19:55:37;2.08;;;0.98;;
21000;SDS011;10658;50.920;12.238;2023-04-03T19:59:38;2.17;;;1.38;;
21000;SDS011;10658;50.920;12.238;2023-04-03T20:03:39;2.20;;;1.10;;
21000;SDS011;10658;50.920;12.238;2023-04-03T20:07:42;5.18;;;1.25;;
21000;SDS011;10658;50.920;12.238;2023-04-03T20:11:43;1.00;;;0.88;;
21000;SDS011;10658;50.920;12.238;2023-04-03T20:15:47;1.10;;;1.00;;
21000;SDS011;10658;50.920;12.238;2023-04-03T20:19:48;4.05;;;1.10;;
21000;SDS011;10658;50.920;12.238;2023-04-03T20:23:50;2.47;;;0.90;;
21000;SDS011;10658;50.920;12.238;2023-04-03T20:27:51;1.83;;;1.10;;
21000;SDS011;10658;50.920;12.238;2023-04-03T20:31:53;3.45;;;1.40;;
21000;SDS011;10658;50.920;12.238;2023-04-03T20:35:55;2.53;;;1.02;;
21000;SDS011;10658;50.920;12.238;2023-04-03T20:39:56;1.27;;;1.10;;
21000;SDS011;10658;50.920;12.238;2023-04-03T20:43:57;1.98;;;1.33;;
21000;SDS011;10658;50.920;12.238;2023-04-03T20:47:59;1.60;;;0.98;;
21000;SDS011;10658;50.920;12.238;2023-04-03T20:52:03;1.35;;;0.93;;
21000;SDS011;10658;50.920;12.238;2023-04-03T20:56:04;2.25;;;1.10;;
21000;SDS011;10658;50.920;12.238;2023-04-03T21:00:08;1.48;;;0.95;;
21000;SDS011;10658;50.920;12.238;2023-04-03T21:04:15;1.50;;;1.10;;
21000;SDS011;10658;50.920;12.238;2023-04-03T21:22:07;5.07;;;1.30;;
21000;SDS011;10658;50.920;12.238;2023-04-03T21:26:08;1.77;;;1.17;;
21000;SDS011;10658;50.920;12.238;2023-04-03T21:30:09;3.40;;;1.20;;
21000;SDS011;10658;50.920;12.238;2023-04-03T21:34:10;1.77;;;1.20;;
21000;SDS011;10658;50.920;12.238;2023-04-03T21:38:13;1.45;;;1.35;;
21000;SDS011;10658;50.920;12.238;2023-04-03T21:42:14;1.30;;;1.20;;
21000;SDS011;10658;50.920;12.238;2023-04-03T21:46:15;2.80;;;1.45;;
21000;SDS011;10658;50.920;12.238;2023-04-03T21:50:16;1.40;;;1.30;;
21000;SDS011;10658;50.920;12.238;2023-04-03T21:54:18;2.78;;;1.50;;
21000;SDS011;10658;50.920;12.238;2023-04-03T21:58:19;3.80;;;1.33;;
21000;SDS011;10658;50.920;12.238;2023-04-03T22:02:20;3.97;;;1.10;;
21000;SDS011;10658;50.920;12.238;2023-04-03T22:06:21;4.15;;;1.50;;
21000;SDS011;10658;50.920;12.238;2023-04-03T22:10:22;4.65;;;1.45;;
21000;SDS011;10658;50.920;12.238;2023-04-03T22:14:23;1.77;;;1.23;;
21000;SDS011;10658;50.920;12.238;2023-04-03T22:18:27;2.08;;;1.40;;
21000;SDS011;10658;50.920;12.238;2023-04-03T22:22:28;3.42;;;1.25;;
21000;SDS011;10658;50.920;12.238;2023-04-03T22:26:29;1.27;;;0.90;;
21000;SDS011;10658;50.920;12.238;2023-04-03T22:30:30;1.02;;;0.93;;
21000;SDS011;10658;50.920;12.238;2023-04-03T22:34:31;3.20;;;1.40;;
21000;SDS011;10658;50.920;12.238;2023-04-03T22:38:32;1.50;;;1.40;;
21000;SDS011;10658;50.920;12.238;2023-04-03T22:42:34;2.22;;;1.40;;
21000;SDS011;10658;50.920;12.238;2023-04-03T22:46:34;1.25;;;1.15;;
21000;SDS011;10658;50.920;12.238;2023-04-03T22:50:35;3.05;;;1.60;;
21000;SDS011;10658;50.920;12.238;2023-04-03T22:54:38;1.98;;;1.77;;
21000;SDS011;10658;50.920;12.238;2023-04-03T22:58:39;2.40;;;1.58;;
21000;SDS011;10658;50.920;12.238;2023-04-03T23:02:40;3.10;;;1.50;;
21000;SDS011;10658;50.920;12.238;2023-04-03T23:06:41;3.88;;;1.98;;
21000;SDS011;10658;50.920;12.238;2023-04-03T23:10:41;2.13;;;1.77;;
21000;SDS011;10658;50.920;12.238;2023-04-03T23:14:42;5.15;;;2.05;;
21000;SDS011;10658;50.920;12.238;2023-04-03T23:18:43;2.22;;;1.80;;
21000;SDS011;10658;50.920;12.238;2023-04-03T23:22:44;4.05;;;1.70;;
21000;SDS011;10658;50.920;12.238;2023-04-03T23:26:45;2.22;;;1.83;;
21000;SDS011;10658;50.920;12.238;2023-04-03T23:30:46;3.92;;;2.03;;
21000;SDS011;10658;50.920;12.238;2023-04-03T23:34:47;3.38;;;2.28;;
21000;SDS011;10658;50.920;12.238;2023-04-03T23:38:48;4.63;;;1.88;;
21000;SDS011;10658;50.920;12.238;2023-04-03T23:42:48;2.33;;;1.42;;
21000;SDS011;10658;50.920;12.238;2023-04-03T23:46:50;4.00;;;2.53;;
21000;SDS011;10658;50.920;12.238;2023-04-03T23:50:50;3.97;;;2.20;;
21000;SDS011;10658;50.920;12.238;2023-04-03T23:54:51;4.78;;;1.92;;
21000;SDS011;10658;50.920;12.238;2023-04-03T23:58:52;2.38;;;1.88;;
